Time;durP1;ratioP1;P1;durP2;ratioP2;P2;SDS_P1;SDS_P2;PMS_P1;PMS_P2;Temp;Humidity;BMP_temperature;BMP_pressure;BME280_temperature;BME280_humidity;BME280_pressure;Samples;Min_cycle;Max_cycle;Signal;HPM_P1;HPM_P2
2021/05/27 00:01:58;;;;;;;3.30;1.53;;;;;;;;;;774457;181;918118;-79
2021/05/27 00:04:24;;;;;;;3.70;2.30;;;;;;;;;;771710;180;919479;-79
2021/05/27 00:06:50;;;;;;;3.27;2.00;;;;;;;;;;781264;177;816036;-78
2021/05/27 00:09:15;;;;;;;2.77;1.50;;;;;;;;;;778337;179;814611;-78
2021/05/27 00:11:41;;;;;;;3.40;1.70;;;;;;;;;;775510;180;777097;-77
2021/05/27 00:14:07;;;;;;;2.40;1.40;;;;;;;;;;777777;181;1020790;-75
2021/05/27 00:16:33;;;;;;;2.23;1.47;;;;;;;;;;772021;180;816807;-80
2021/05/27 00:18:59;;;;;;;3.50;1.50;;;;;;;;;;771774;178;917379;-80
2021/05/27 00:21:25;;;;;;;4.60;1.53;;;;;;;;;;775911;180;858925;-78
2021/05/27 00:23:50;;;;;;;3.33;1.47;;;;;;;;;;771800;181;918765;-80
2021/05/27 00:26:16;;;;;;;6.13;1.43;;;;;;;;;;773600;180;868234;-80
2021/05/27 00:28:42;;;;;;;2.47;1.53;;;;;;;;;;772731;180;921138;-79
2021/05/27 00:31:08;;;;;;;2.73;1.53;;;;;;;;;;778383;177;919177;-80
2021/05/27 00:33:35;;;;;;;2.87;1.47;;;;;;;;;;773677;180;912913;-80
2021/05/27 00:36:00;;;;;;;4.15;1.35;;;;;;;;;;766951;181;2553052;-81
2021/05/27 00:38:26;;;;;;;3.17;1.80;;;;;;;;;;781770;177;917744;-80
2021/05/27 00:40:52;;;;;;;3.53;1.23;;;;;;;;;;773240;180;945240;-81
2021/05/27 00:43:18;;;;;;;2.10;1.10;;;;;;;;;;773375;178;823295;-81
2021/05/27 00:45:45;;;;;;;3.75;1.50;;;;;;;;;;786134;179;920257;-81
2021/05/27 00:48:56;;;;;;;2.00;1.20;;;;;;;;;;774777;180;933996;-82
2021/05/27 00:50:38;;;;;;;4.10;1.30;;;;;;;;;;776013;177;815782;-82
2021/05/27 00:53:04;;;;;;;2.60;1.50;;;;;;;;;;755834;181;918217;-83
2021/05/27 00:55:30;;;;;;;1.90;1.20;;;;;;;;;;778981;178;733201;-81
2021/05/27 00:57:56;;;;;;;2.53;1.17;;;;;;;;;;774957;180;919757;-83
2021/05/27 01:00:22;;;;;;;2.40;1.17;;;;;;;;;;774311;180;917913;-83
2021/05/27 01:02:48;;;;;;;2.63;1.90;;;;;;;;;;771900;178;902256;-83
2021/05/27 01:05:14;;;;;;;5.23;1.33;;;;;;;;;;773762;180;1028049;-83
2021/05/27 01:07:40;;;;;;;2.37;1.40;;;;;;;;;;769290;181;714303;-82
2021/05/27 01:10:06;;;;;;;4.10;1.73;;;;;;;;;;775549;178;672204;-83
2021/05/27 01:12:32;;;;;;;2.53;1.33;;;;;;;;;;768358;181;916070;-82
2021/05/27 01:17:30;;;;;;;8.27;1.70;;;;;;;;;;773370;178;1015496;-83
2021/05/27 01:19:55;;;;;;;3.00;1.40;;;;;;;;;;780518;177;916894;-84
2021/05/27 01:22:22;;;;;;;2.53;1.52;;;;;;;;;;776445;177;917760;-85
2021/05/27 01:24:48;;;;;;;2.10;1.40;;;;;;;;;;771775;178;1021040;-84
2021/05/27 01:27:13;;;;;;;2.87;1.60;;;;;;;;;;777651;180;916694;-84
2021/05/27 01:29:41;;;;;;;3.43;1.43;;;;;;;;;;773561;177;895290;-84
2021/05/27 01:32:05;;;;;;;2.07;1.20;;;;;;;;;;777794;179;762438;-82
2021/05/27 01:34:31;;;;;;;3.03;1.50;;;;;;;;;;784258;174;681555;-83
2021/05/27 01:36:57;;;;;;;5.40;1.50;;;;;;;;;;781903;179;746846;-83
2021/05/27 01:39:23;;;;;;;2.67;1.63;;;;;;;;;;781336;178;708046;-84
2021/05/27 01:41:50;;;;;;;2.10;1.23;;;;;;;;;;778096;180;785335;-84
2021/05/27 01:44:15;;;;;;;2.43;1.50;;;;;;;;;;780333;176;712729;-84
2021/05/27 01:46:41;;;;;;;2.37;1.70;;;;;;;;;;775652;179;914359;-84
2021/05/27 01:49:07;;;;;;;2.70;1.30;;;;;;;;;;781913;174;814806;-85
2021/05/27 01:51:33;;;;;;;2.17;1.30;;;;;;;;;;783641;177;628063;-84
2021/05/27 01:53:59;;;;;;;3.00;1.40;;;;;;;;;;780756;177;669800;-84
2021/05/27 01:56:24;;;;;;;2.20;1.50;;;;;;;;;;776157;179;1021161;-85
2021/05/27 01:58:50;;;;;;;2.70;1.57;;;;;;;;;;754905;181;918115;-83
2021/05/27 02:01:16;;;;;;;3.23;2.00;;;;;;;;;;778300;180;898293;-84
2021/05/27 02:03:42;;;;;;;3.20;1.47;;;;;;;;;;775500;178;917996;-84
2021/05/27 02:06:08;;;;;;;2.00;1.37;;;;;;;;;;774192;178;917337;-86
2021/05/27 02:08:34;;;;;;;2.60;1.43;;;;;;;;;;782037;180;916970;-84
2021/05/27 02:11:00;;;;;;;3.23;1.43;;;;;;;;;;769409;178;918476;-85
2021/05/27 02:13:25;;;;;;;2.33;1.17;;;;;;;;;;780373;177;917904;-85
2021/05/27 02:15:52;;;;;;;2.13;1.20;;;;;;;;;;777384;179;1018343;-85
2021/05/27 02:18:17;;;;;;;2.43;1.57;;;;;;;;;;772130;180;919396;-84
2021/05/27 02:20:43;;;;;;;3.27;1.43;;;;;;;;;;769232;180;944809;-85
2021/05/27 02:23:09;;;;;;;2.17;1.20;;;;;;;;;;767383;180;918695;-78
2021/05/27 02:25:35;;;;;;;2.87;1.30;;;;;;;;;;775017;179;915016;-79
2021/05/27 02:28:01;;;;;;;2.50;1.53;;;;;;;;;;776402;177;1023112;-78
2021/05/27 02:30:27;;;;;;;2.90;1.30;;;;;;;;;;776788;178;912319;-80
2021/05/27 02:32:52;;;;;;;2.13;1.20;;;;;;;;;;778411;180;915578;-80
2021/05/27 02:35:18;;;;;;;2.67;1.40;;;;;;;;;;774965;180;923690;-80
2021/05/27 02:37:44;;;;;;;3.13;1.73;;;;;;;;;;776056;180;914107;-80
2021/05/27 02:40:10;;;;;;;2.05;1.30;;;;;;;;;;781101;177;918484;-79
2021/05/27 02:42:36;;;;;;;3.53;1.73;;;;;;;;;;775532;180;918122;-78
2021/05/27 02:45:02;;;;;;;3.10;1.73;;;;;;;;;;776912;178;815949;-78
2021/05/27 02:47:28;;;;;;;2.10;1.40;;;;;;;;;;781641;178;915407;-78
2021/05/27 02:49:54;;;;;;;2.40;1.40;;;;;;;;;;773805;180;950823;-79
2021/05/27 02:52:20;;;;;;;2.80;1.30;;;;;;;;;;771609;177;652931;-79
2021/05/27 02:54:45;;;;;;;5.93;1.77;;;;;;;;;;771811;180;813271;-78
2021/05/27 02:57:11;;;;;;;3.23;1.40;;;;;;;;;;779940;178;904724;-76
2021/05/27 02:59:37;;;;;;;2.63;1.60;;;;;;;;;;770485;180;913347;-75
2021/05/27 03:02:03;;;;;;;4.10;1.83;;;;;;;;;;761569;181;916526;-74
2021/05/27 03:04:29;;;;;;;2.93;1.87;;;;;;;;;;779549;180;922662;-75
2021/05/27 03:06:55;;;;;;;4.20;2.20;;;;;;;;;;771611;178;915859;-74
2021/05/27 03:09:20;;;;;;;6.33;2.47;;;;;;;;;;765415;181;914127;-75
2021/05/27 03:11:46;;;;;;;4.30;2.20;;;;;;;;;;779107;177;814216;-74
2021/05/27 03:14:12;;;;;;;3.17;2.03;;;;;;;;;;775183;177;915277;-72
2021/05/27 03:16:38;;;;;;;6.53;2.87;;;;;;;;;;772973;177;918798;-72
2021/05/27 03:19:04;;;;;;;3.15;2.35;;;;;;;;;;765132;180;920844;-71
2021/05/27 03:21:30;;;;;;;3.30;2.57;;;;;;;;;;775530;181;883333;-73
2021/05/27 03:23:56;;;;;;;3.03;2.00;;;;;;;;;;779509;177;652717;-75
2021/05/27 03:26:22;;;;;;;3.80;2.17;;;;;;;;;;777859;179;815938;-75
2021/05/27 03:28:47;;;;;;;2.87;1.70;;;;;;;;;;782230;180;672239;-75
2021/05/27 03:31:13;;;;;;;6.57;2.30;;;;;;;;;;774152;180;818418;-76
2021/05/27 03:33:39;;;;;;;2.60;1.53;;;;;;;;;;773967;180;919289;-77
2021/05/27 03:36:05;;;;;;;3.33;2.10;;;;;;;;;;777897;179;918885;-77
2021/05/27 03:38:31;;;;;;;2.47;1.70;;;;;;;;;;773451;180;864352;-76
2021/05/27 03:40:57;;;;;;;2.77;1.67;;;;;;;;;;770937;179;1232507;-76
2021/05/27 03:43:22;;;;;;;2.80;1.70;;;;;;;;;;774493;178;910078;-76
2021/05/27 03:45:48;;;;;;;3.72;2.05;;;;;;;;;;770810;180;919090;-77
2021/05/27 03:48:14;;;;;;;4.33;1.73;;;;;;;;;;771551;180;918211;-77
2021/05/27 03:50:40;;;;;;;3.23;1.97;;;;;;;;;;774178;180;634767;-77
2021/05/27 03:53:08;;;;;;;6.93;1.70;;;;;;;;;;776289;180;747007;-78
2021/05/27 03:55:32;;;;;;;4.10;1.40;;;;;;;;;;774429;180;913491;-78
2021/05/27 03:57:59;;;;;;;2.33;1.37;;;;;;;;;;777795;180;712674;-78
2021/05/27 04:02:58;;;;;;;4.10;1.40;;;;;;;;;;780148;177;616029;-79
2021/05/27 04:07:53;;;;;;;2.57;1.43;;;;;;;;;;773291;180;860360;-78
2021/05/27 04:10:20;;;;;;;3.57;1.90;;;;;;;;;;780325;178;628749;-79
2021/05/27 04:12:46;;;;;;;4.20;2.10;;;;;;;;;;773650;179;915508;-79
2021/05/27 04:15:20;;;;;;;4.93;1.60;;;;;;;;;;779021;177;918295;-77
2021/05/27 04:17:46;;;;;;;2.67;1.73;;;;;;;;;;779954;178;627088;-77
2021/05/27 04:20:12;;;;;;;3.00;1.93;;;;;;;;;;781099;179;842989;-77
2021/05/27 04:22:39;;;;;;;3.20;1.87;;;;;;;;;;774826;178;817771;-78
2021/05/27 04:25:05;;;;;;;2.50;1.70;;;;;;;;;;776640;177;909197;-77
2021/05/27 04:27:31;;;;;;;3.37;1.80;;;;;;;;;;780454;177;734955;-78
2021/05/27 04:29:56;;;;;;;2.57;1.67;;;;;;;;;;773603;178;913394;-78
2021/05/27 04:34:54;;;;;;;2.80;1.63;;;;;;;;;;772846;177;909701;-78
2021/05/27 04:37:20;;;;;;;2.60;1.87;;;;;;;;;;777808;177;922440;-78
2021/05/27 04:39:46;;;;;;;3.70;1.60;;;;;;;;;;764906;181;919789;-78
2021/05/27 04:42:12;;;;;;;2.47;1.52;;;;;;;;;;769463;177;915391;-79
2021/05/27 04:44:37;;;;;;;2.70;1.73;;;;;;;;;;770676;180;914127;-78
2021/05/27 04:47:03;;;;;;;3.27;1.27;;;;;;;;;;770949;177;919226;-79
2021/05/27 04:49:29;;;;;;;2.47;1.70;;;;;;;;;;775213;178;712684;-77
2021/05/27 04:51:55;;;;;;;2.50;1.33;;;;;;;;;;778451;178;814344;-78
2021/05/27 04:54:21;;;;;;;3.87;1.57;;;;;;;;;;775268;180;1024158;-79
2021/05/27 04:56:47;;;;;;;1.80;1.10;;;;;;;;;;773316;180;918009;-75
2021/05/27 04:59:12;;;;;;;6.90;1.70;;;;;;;;;;774322;177;917674;-78
2021/05/27 05:01:38;;;;;;;2.43;1.33;;;;;;;;;;776550;180;918863;-78
2021/05/27 05:04:04;;;;;;;2.57;1.33;;;;;;;;;;769658;180;918445;-77
2021/05/27 05:06:30;;;;;;;5.93;1.50;;;;;;;;;;773555;178;918157;-78
2021/05/27 05:08:57;;;;;;;2.67;1.60;;;;;;;;;;782220;178;817687;-77
2021/05/27 05:11:22;;;;;;;3.57;1.43;;;;;;;;;;775723;180;815594;-77
2021/05/27 05:13:48;;;;;;;2.40;1.50;;;;;;;;;;773615;180;815904;-78
2021/05/27 05:16:13;;;;;;;2.97;1.70;;;;;;;;;;779130;180;908963;-77
2021/05/27 05:18:39;;;;;;;3.30;1.80;;;;;;;;;;774382;180;919271;-77
2021/05/27 05:21:05;;;;;;;2.30;1.60;;;;;;;;;;769539;180;918443;-77
2021/05/27 05:23:31;;;;;;;3.80;1.48;;;;;;;;;;776088;177;944391;-75
2021/05/27 05:25:57;;;;;;;2.90;1.33;;;;;;;;;;760018;180;2342934;-75
2021/05/27 05:28:23;;;;;;;3.57;1.40;;;;;;;;;;766704;180;910513;-77
2021/05/27 05:30:49;;;;;;;4.27;1.40;;;;;;;;;;772683;179;918855;-76
2021/05/27 05:33:14;;;;;;;2.37;1.53;;;;;;;;;;782435;176;919397;-75
2021/05/27 05:35:40;;;;;;;2.60;1.10;;;;;;;;;;774591;177;713923;-75
2021/05/27 05:38:06;;;;;;;2.57;1.60;;;;;;;;;;773190;178;1021228;-75
2021/05/27 05:40:32;;;;;;;4.25;1.40;;;;;;;;;;777698;180;914810;-75
2021/05/27 05:42:58;;;;;;;3.73;1.30;;;;;;;;;;762538;180;888376;-75
2021/05/27 05:45:24;;;;;;;2.87;1.65;;;;;;;;;;774601;181;823748;-77
2021/05/27 05:47:50;;;;;;;3.07;1.30;;;;;;;;;;778509;180;816298;-75
2021/05/27 05:50:44;;;;;;;3.13;1.60;;;;;;;;;;768943;179;912894;-75
2021/05/27 05:52:42;;;;;;;2.63;1.83;;;;;;;;;;765066;181;919786;-75
2021/05/27 05:55:07;;;;;;;2.80;1.50;;;;;;;;;;775815;180;813734;-75
2021/05/27 05:57:33;;;;;;;2.30;1.50;;;;;;;;;;782066;180;893332;-76
2021/05/27 05:59:59;;;;;;;4.53;1.83;;;;;;;;;;778330;178;921712;-75
2021/05/27 06:02:25;;;;;;;3.20;2.10;;;;;;;;;;771871;180;917781;-74
2021/05/27 06:04:51;;;;;;;2.60;1.27;;;;;;;;;;779638;180;802530;-76
2021/05/27 06:07:19;;;;;;;2.67;1.67;;;;;;;;;;773970;180;919357;-75
2021/05/27 06:09:42;;;;;;;2.80;1.47;;;;;;;;;;775281;180;919077;-75
2021/05/27 06:12:08;;;;;;;2.63;1.77;;;;;;;;;;779421;181;633453;-75
2021/05/27 06:14:35;;;;;;;2.47;1.30;;;;;;;;;;781561;180;629932;-75
2021/05/27 06:17:00;;;;;;;2.80;1.50;;;;;;;;;;779127;178;638187;-75
2021/05/27 06:19:26;;;;;;;2.13;1.30;;;;;;;;;;773056;178;823186;-74
2021/05/27 06:21:52;;;;;;;4.60;1.80;;;;;;;;;;773498;180;816539;-75
2021/05/27 06:24:17;;;;;;;2.73;1.60;;;;;;;;;;774549;179;919552;-74
2021/05/27 06:26:43;;;;;;;2.63;1.53;;;;;;;;;;777141;179;816547;-74
2021/05/27 06:29:09;;;;;;;3.10;1.63;;;;;;;;;;779785;180;816618;-73
2021/05/27 06:31:35;;;;;;;2.77;1.40;;;;;;;;;;775971;181;919175;-75
2021/05/27 06:34:01;;;;;;;3.33;1.40;;;;;;;;;;770361;180;919952;-74
2021/05/27 06:36:27;;;;;;;5.73;1.50;;;;;;;;;;781716;177;814495;-75
2021/05/27 06:38:52;;;;;;;2.03;1.20;;;;;;;;;;777801;177;836073;-76
2021/05/27 06:41:19;;;;;;;2.23;1.20;;;;;;;;;;772634;180;855660;-75
2021/05/27 06:43:46;;;;;;;2.60;1.57;;;;;;;;;;782868;180;815421;-74
2021/05/27 06:46:12;;;;;;;5.03;1.37;;;;;;;;;;778957;178;919402;-75
2021/05/27 06:48:38;;;;;;;2.77;1.50;;;;;;;;;;776338;180;919330;-76
2021/05/27 06:51:03;;;;;;;2.15;1.42;;;;;;;;;;775115;180;815109;-75
2021/05/27 06:53:29;;;;;;;2.23;1.27;;;;;;;;;;779011;180;959214;-76
2021/05/27 06:55:55;;;;;;;3.13;1.47;;;;;;;;;;774910;178;919185;-76
2021/05/27 06:58:21;;;;;;;4.00;1.43;;;;;;;;;;775365;181;916479;-74
2021/05/27 07:00:47;;;;;;;2.43;1.53;;;;;;;;;;775890;180;936802;-74
2021/05/27 07:03:16;;;;;;;2.37;1.30;;;;;;;;;;779351;177;919406;-76
2021/05/27 07:05:39;;;;;;;3.07;1.47;;;;;;;;;;776042;180;919276;-75
2021/05/27 07:08:06;;;;;;;2.00;1.20;;;;;;;;;;777157;178;821288;-75
2021/05/27 07:10:31;;;;;;;4.00;1.70;;;;;;;;;;774460;180;901323;-74
2021/05/27 07:12:58;;;;;;;1.97;1.20;;;;;;;;;;774500;180;921659;-76
2021/05/27 07:15:24;;;;;;;2.00;1.30;;;;;;;;;;773734;179;918281;-76
2021/05/27 07:17:50;;;;;;;4.20;1.60;;;;;;;;;;772303;180;918857;-75
2021/05/27 07:20:15;;;;;;;2.60;1.50;;;;;;;;;;769995;181;918856;-76
2021/05/27 07:22:41;;;;;;;3.50;1.70;;;;;;;;;;770824;180;918582;-75
2021/05/27 07:25:07;;;;;;;2.27;1.40;;;;;;;;;;780740;178;910768;-75
2021/05/27 07:27:33;;;;;;;2.73;1.40;;;;;;;;;;778072;177;918073;-74
2021/05/27 07:29:59;;;;;;;2.37;1.53;;;;;;;;;;769559;180;919854;-75
2021/05/27 07:32:25;;;;;;;3.23;1.50;;;;;;;;;;770027;178;815119;-76
2021/05/27 07:34:51;;;;;;;3.70;1.43;;;;;;;;;;777592;180;816702;-75
2021/05/27 07:37:17;;;;;;;2.12;1.25;;;;;;;;;;773830;178;918463;-76
2021/05/27 07:39:43;;;;;;;2.97;1.60;;;;;;;;;;776701;178;866472;-74
2021/05/27 07:42:10;;;;;;;2.30;1.70;;;;;;;;;;775133;180;919575;-76
2021/05/27 07:44:35;;;;;;;4.93;1.77;;;;;;;;;;777014;180;919261;-76
2021/05/27 07:47:01;;;;;;;2.42;1.50;;;;;;;;;;772067;180;1021564;-74
2021/05/27 07:49:27;;;;;;;6.53;1.80;;;;;;;;;;774329;180;815453;-73
2021/05/27 07:51:53;;;;;;;6.83;1.27;;;;;;;;;;769860;180;917957;-75
2021/05/27 07:54:18;;;;;;;4.30;1.60;;;;;;;;;;770704;179;814951;-76
2021/05/27 07:56:44;;;;;;;1.90;1.30;;;;;;;;;;783297;180;919295;-76
2021/05/27 07:59:10;;;;;;;3.30;1.83;;;;;;;;;;776686;177;815320;-74
2021/05/27 08:01:36;;;;;;;2.40;1.50;;;;;;;;;;775741;177;918878;-73
2021/05/27 08:04:02;;;;;;;2.73;1.60;;;;;;;;;;778866;180;944291;-75
2021/05/27 08:06:28;;;;;;;3.93;1.90;;;;;;;;;;779174;177;817430;-73
2021/05/27 08:08:54;;;;;;;3.13;1.70;;;;;;;;;;777586;177;919792;-73
2021/05/27 08:11:19;;;;;;;2.40;1.60;;;;;;;;;;771212;180;817223;-74
2021/05/27 08:13:46;;;;;;;4.00;1.63;;;;;;;;;;786632;179;613425;-76
2021/05/27 08:16:11;;;;;;;3.43;1.90;;;;;;;;;;777879;179;631666;-74
2021/05/27 08:18:37;;;;;;;2.30;1.43;;;;;;;;;;777490;178;618880;-76
2021/05/27 08:21:03;;;;;;;2.37;1.60;;;;;;;;;;780776;180;773187;-74
2021/05/27 08:23:29;;;;;;;2.97;2.00;;;;;;;;;;776030;179;917729;-74
2021/05/27 08:25:55;;;;;;;4.33;1.70;;;;;;;;;;774335;180;920631;-74
2021/05/27 08:28:20;;;;;;;3.50;2.10;;;;;;;;;;780618;180;813586;-73
2021/05/27 08:30:46;;;;;;;2.70;1.60;;;;;;;;;;777869;177;918063;-75
2021/05/27 08:33:12;;;;;;;4.30;1.60;;;;;;;;;;772866;181;919393;-74
2021/05/27 08:35:38;;;;;;;3.40;2.03;;;;;;;;;;778671;180;816668;-72
2021/05/27 08:38:04;;;;;;;7.93;2.27;;;;;;;;;;768598;180;918818;-74
2021/05/27 08:40:30;;;;;;;2.40;1.50;;;;;;;;;;768482;180;919524;-75
2021/05/27 08:42:56;;;;;;;5.10;1.73;;;;;;;;;;772808;180;918247;-74
2021/05/27 08:45:21;;;;;;;2.10;1.50;;;;;;;;;;778786;180;919451;-74
2021/05/27 08:47:47;;;;;;;5.93;1.60;;;;;;;;;;773191;179;919254;-73
2021/05/27 08:50:13;;;;;;;4.93;2.12;;;;;;;;;;773789;181;1021848;-74
2021/05/27 08:52:39;;;;;;;6.67;2.07;;;;;;;;;;767378;181;917866;-74
2021/05/27 08:55:05;;;;;;;3.60;1.40;;;;;;;;;;770948;180;918410;-73
2021/05/27 08:57:31;;;;;;;3.10;1.73;;;;;;;;;;774068;178;949095;-73
2021/05/27 08:59:57;;;;;;;2.77;2.00;;;;;;;;;;779216;180;918961;-71
2021/05/27 09:02:23;;;;;;;4.77;1.97;;;;;;;;;;777754;180;1022531;-72
2021/05/27 09:04:49;;;;;;;3.80;2.00;;;;;;;;;;774136;179;919456;-73
2021/05/27 09:07:15;;;;;;;3.20;1.30;;;;;;;;;;774704;179;918768;-72
2021/05/27 09:09:46;;;;;;;3.43;1.80;;;;;;;;;;781502;179;919003;-71
2021/05/27 09:12:18;;;;;;;6.03;2.03;;;;;;;;;;776701;177;918663;-71
2021/05/27 09:14:44;;;;;;;2.80;1.50;;;;;;;;;;775968;178;919084;-73
2021/05/27 09:17:10;;;;;;;3.90;1.87;;;;;;;;;;772403;177;919026;-73
2021/05/27 09:19:36;;;;;;;2.77;1.73;;;;;;;;;;781797;180;918873;-73
2021/05/27 09:22:02;;;;;;;2.60;2.00;;;;;;;;;;770950;180;919464;-73
2021/05/27 09:24:27;;;;;;;3.03;1.63;;;;;;;;;;763811;181;918801;-73
2021/05/27 09:26:53;;;;;;;3.40;1.73;;;;;;;;;;761399;182;919655;-74
2021/05/27 09:29:19;;;;;;;3.80;2.23;;;;;;;;;;769818;181;921042;-74
2021/05/27 09:31:50;;;;;;;20.83;2.40;;;;;;;;;;773010;180;919078;-74
2021/05/27 09:34:18;;;;;;;7.53;2.60;;;;;;;;;;775998;177;916473;-72
2021/05/27 09:36:42;;;;;;;10.85;3.67;;;;;;;;;;767428;180;919572;-73
2021/05/27 09:39:08;;;;;;;10.20;2.30;;;;;;;;;;773055;181;917684;-73
2021/05/27 09:41:34;;;;;;;3.83;2.12;;;;;;;;;;774770;178;927372;-73
2021/05/27 09:44:16;;;;;;;2.93;1.90;;;;;;;;;;777869;178;915673;-73
2021/05/27 09:46:48;;;;;;;3.23;2.00;;;;;;;;;;779079;180;920273;-73
2021/05/27 09:49:14;;;;;;;3.73;1.80;;;;;;;;;;765613;180;940864;-74
2021/05/27 09:51:40;;;;;;;12.83;3.70;;;;;;;;;;771646;180;920863;-74
2021/05/27 09:54:07;;;;;;;9.33;3.20;;;;;;;;;;776275;177;912748;-73
2021/05/27 09:56:41;;;;;;;5.97;3.33;;;;;;;;;;771404;181;920828;-71
2021/05/27 09:59:07;;;;;;;4.47;2.00;;;;;;;;;;770451;181;920701;-72
2021/05/27 10:01:33;;;;;;;4.93;1.80;;;;;;;;;;773256;178;909784;-73
2021/05/27 10:04:16;;;;;;;8.07;2.30;;;;;;;;;;779703;179;910039;-73
2021/05/27 10:06:41;;;;;;;3.47;2.00;;;;;;;;;;766201;181;912946;-76
2021/05/27 10:09:09;;;;;;;3.13;1.87;;;;;;;;;;777601;178;909667;-73
2021/05/27 10:11:33;;;;;;;4.30;2.20;;;;;;;;;;774490;178;880860;-74
2021/05/27 10:13:59;;;;;;;3.00;1.77;;;;;;;;;;774753;177;915349;-74
2021/05/27 10:16:25;;;;;;;4.23;1.87;;;;;;;;;;775422;180;913308;-73
2021/05/27 10:18:51;;;;;;;5.27;2.00;;;;;;;;;;775296;177;914705;-72
2021/05/27 10:21:17;;;;;;;2.90;1.90;;;;;;;;;;775627;177;1022226;-74
2021/05/27 10:23:42;;;;;;;4.10;1.97;;;;;;;;;;782081;177;913155;-73
2021/05/27 10:26:08;;;;;;;3.87;2.50;;;;;;;;;;774470;177;916498;-73
2021/05/27 10:28:34;;;;;;;3.87;1.60;;;;;;;;;;775405;178;929806;-73
2021/05/27 10:31:00;;;;;;;3.40;1.80;;;;;;;;;;780786;177;914558;-72
2021/05/27 10:33:26;;;;;;;3.60;2.00;;;;;;;;;;777172;180;760385;-72
2021/05/27 10:35:53;;;;;;;3.13;1.90;;;;;;;;;;773391;180;915441;-71
2021/05/27 10:38:18;;;;;;;6.37;1.92;;;;;;;;;;777938;180;918917;-72
2021/05/27 10:40:44;;;;;;;2.10;1.27;;;;;;;;;;774190;177;919416;-72
2021/05/27 10:43:11;;;;;;;3.03;1.80;;;;;;;;;;773960;180;919250;-74
2021/05/27 10:45:55;;;;;;;2.60;1.50;;;;;;;;;;774786;178;919103;-72
2021/05/27 10:48:25;;;;;;;2.67;1.70;;;;;;;;;;770883;178;919568;-73
2021/05/27 10:51:09;;;;;;;4.97;2.20;;;;;;;;;;779483;180;919235;-72
2021/05/27 10:53:50;;;;;;;2.00;1.30;;;;;;;;;;781589;180;884082;-71
2021/05/27 10:56:15;;;;;;;4.20;1.80;;;;;;;;;;779695;180;919600;-72
2021/05/27 10:59:02;;;;;;;3.93;1.70;;;;;;;;;;767327;178;919417;-72
2021/05/27 11:01:44;;;;;;;3.53;1.73;;;;;;;;;;772188;178;917887;-73
2021/05/27 11:04:15;;;;;;;2.50;1.45;;;;;;;;;;774507;179;917543;-73
2021/05/27 11:06:41;;;;;;;3.23;1.73;;;;;;;;;;771759;180;919269;-72
2021/05/27 11:09:23;;;;;;;3.97;1.50;;;;;;;;;;774358;180;919331;-71
2021/05/27 11:11:50;;;;;;;3.53;1.90;;;;;;;;;;774548;180;919373;-73
2021/05/27 11:14:20;;;;;;;3.33;1.80;;;;;;;;;;782979;177;918603;-72
2021/05/27 11:16:52;;;;;;;2.40;1.50;;;;;;;;;;771579;180;919620;-73
2021/05/27 11:19:20;;;;;;;3.43;1.80;;;;;;;;;;774273;180;920878;-71
2021/05/27 11:21:46;;;;;;;2.60;1.30;;;;;;;;;;770069;180;926167;-71
2021/05/27 11:24:46;;;;;;;2.53;1.58;;;;;;;;;;776321;181;923349;-73
2021/05/27 11:27:09;;;;;;;3.50;1.70;;;;;;;;;;773211;181;629415;-73
2021/05/27 11:29:35;;;;;;;3.20;1.77;;;;;;;;;;778420;180;919498;-73
2021/05/27 11:32:01;;;;;;;2.90;1.50;;;;;;;;;;775742;177;1012437;-72
2021/05/27 11:34:27;;;;;;;3.05;1.70;;;;;;;;;;779042;180;917199;-71
2021/05/27 11:36:58;;;;;;;2.90;1.50;;;;;;;;;;780767;180;918711;-74
2021/05/27 11:39:23;;;;;;;4.03;1.53;;;;;;;;;;780977;180;919215;-73
2021/05/27 11:41:50;;;;;;;2.70;1.37;;;;;;;;;;772869;180;624785;-73
2021/05/27 11:44:16;;;;;;;1.93;1.20;;;;;;;;;;768154;180;617569;-71
2021/05/27 11:46:42;;;;;;;4.57;1.63;;;;;;;;;;777220;180;1019082;-73
2021/05/27 11:49:08;;;;;;;2.80;1.30;;;;;;;;;;775937;180;918436;-75
2021/05/27 11:51:34;;;;;;;2.63;1.53;;;;;;;;;;771248;180;919109;-73
2021/05/27 11:54:00;;;;;;;3.60;1.80;;;;;;;;;;779599;179;816592;-72
2021/05/27 11:56:26;;;;;;;2.67;1.50;;;;;;;;;;775946;181;621445;-74
2021/05/27 11:58:51;;;;;;;2.10;1.27;;;;;;;;;;774069;178;908983;-73
2021/05/27 12:01:23;;;;;;;3.77;2.03;;;;;;;;;;772144;180;918749;-72
2021/05/27 12:03:55;;;;;;;3.40;1.70;;;;;;;;;;777803;180;917957;-71
2021/05/27 12:06:21;;;;;;;3.97;1.40;;;;;;;;;;769388;177;1271553;-73
2021/05/27 12:08:47;;;;;;;3.12;1.42;;;;;;;;;;771817;178;919840;-71
2021/05/27 12:11:13;;;;;;;4.27;1.13;;;;;;;;;;771333;180;916288;-72
2021/05/27 12:13:39;;;;;;;2.72;1.55;;;;;;;;;;770579;178;916121;-72
2021/05/27 12:16:05;;;;;;;2.93;1.63;;;;;;;;;;770827;178;916251;-73
2021/05/27 12:18:31;;;;;;;2.30;1.20;;;;;;;;;;774590;177;913867;-73
2021/05/27 12:20:56;;;;;;;5.93;1.50;;;;;;;;;;779298;180;633651;-73
2021/05/27 12:23:22;;;;;;;2.30;1.10;;;;;;;;;;777766;180;628545;-71
2021/05/27 12:25:49;;;;;;;2.50;1.50;;;;;;;;;;770583;177;914403;-72
2021/05/27 12:28:18;;;;;;;3.83;1.83;;;;;;;;;;781018;180;625276;-73
2021/05/27 12:30:44;;;;;;;2.90;1.70;;;;;;;;;;765843;181;899803;-74
2021/05/27 12:33:10;;;;;;;6.37;1.50;;;;;;;;;;761598;180;918755;-72
2021/05/27 12:35:35;;;;;;;2.50;1.50;;;;;;;;;;772296;180;918797;-73
2021/05/27 12:38:01;;;;;;;2.50;1.70;;;;;;;;;;779041;180;1090160;-73
2021/05/27 12:40:28;;;;;;;3.23;1.80;;;;;;;;;;772060;179;918921;-73
2021/05/27 12:42:54;;;;;;;4.20;1.60;;;;;;;;;;778181;177;646827;-75
2021/05/27 12:45:25;;;;;;;2.50;1.53;;;;;;;;;;784087;179;627664;-72
2021/05/27 12:47:57;;;;;;;3.20;1.77;;;;;;;;;;761515;180;913680;-72
2021/05/27 12:50:23;;;;;;;3.50;1.80;;;;;;;;;;774350;180;632571;-72
2021/05/27 12:52:49;;;;;;;3.20;1.60;;;;;;;;;;776076;180;919799;-72
2021/05/27 12:55:14;;;;;;;2.43;1.60;;;;;;;;;;781497;180;621524;-74
2021/05/27 12:57:46;;;;;;;2.67;1.67;;;;;;;;;;779765;180;632860;-72
2021/05/27 13:00:12;;;;;;;2.70;1.70;;;;;;;;;;776507;180;616830;-73
2021/05/27 13:02:38;;;;;;;3.37;2.40;;;;;;;;;;776938;180;623637;-72
2021/05/27 13:05:12;;;;;;;3.67;2.40;;;;;;;;;;774031;181;630661;-73
2021/05/27 13:07:38;;;;;;;6.17;1.67;;;;;;;;;;778640;178;617211;-73
2021/05/27 13:10:04;;;;;;;2.87;1.87;;;;;;;;;;766902;181;913508;-72
2021/05/27 13:12:31;;;;;;;5.60;2.20;;;;;;;;;;767220;180;633154;-72
2021/05/27 13:15:15;;;;;;;2.53;1.40;;;;;;;;;;776927;180;632621;-73
2021/05/27 13:17:42;;;;;;;3.63;1.70;;;;;;;;;;780098;179;661833;-73
2021/05/27 13:20:08;;;;;;;3.23;1.90;;;;;;;;;;772175;177;1479970;-73
2021/05/27 13:22:33;;;;;;;6.70;1.77;;;;;;;;;;778902;179;628640;-72
2021/05/27 13:25:03;;;;;;;4.97;1.93;;;;;;;;;;782615;180;627015;-72
2021/05/27 13:27:32;;;;;;;2.10;1.60;;;;;;;;;;777031;180;636426;-73
2021/05/27 13:29:55;;;;;;;3.30;1.67;;;;;;;;;;777851;180;631836;-73
2021/05/27 13:32:21;;;;;;;6.93;1.90;;;;;;;;;;773167;178;617340;-72
2021/05/27 13:34:46;;;;;;;3.10;1.60;;;;;;;;;;774660;181;626197;-74
2021/05/27 13:37:13;;;;;;;2.37;1.67;;;;;;;;;;774942;179;647835;-73
2021/05/27 13:39:38;;;;;;;10.53;1.87;;;;;;;;;;774681;180;740674;-72
2021/05/27 13:42:04;;;;;;;3.37;1.90;;;;;;;;;;778251;180;625356;-74
2021/05/27 13:44:30;;;;;;;4.13;1.83;;;;;;;;;;778791;180;630864;-73
2021/05/27 13:46:56;;;;;;;3.90;2.17;;;;;;;;;;777975;178;626026;-72
2021/05/27 13:49:22;;;;;;;4.23;1.63;;;;;;;;;;780905;180;632136;-74
2021/05/27 13:51:51;;;;;;;4.33;1.93;;;;;;;;;;756143;180;919694;-74
2021/05/27 13:54:15;;;;;;;3.17;2.20;;;;;;;;;;774775;179;919880;-74
2021/05/27 13:56:39;;;;;;;3.10;2.03;;;;;;;;;;775542;179;621473;-74
2021/05/27 13:59:05;;;;;;;3.67;1.60;;;;;;;;;;770767;180;918772;-75
2021/05/27 14:01:31;;;;;;;3.47;1.63;;;;;;;;;;774999;177;919505;-73
2021/05/27 14:03:57;;;;;;;3.87;1.80;;;;;;;;;;773972;180;917344;-74
2021/05/27 14:06:22;;;;;;;3.40;1.77;;;;;;;;;;784173;179;614794;-73
2021/05/27 14:08:48;;;;;;;4.03;2.20;;;;;;;;;;780853;177;634936;-74
2021/05/27 14:11:14;;;;;;;6.63;1.90;;;;;;;;;;777792;179;650709;-74
2021/05/27 14:13:40;;;;;;;5.13;1.97;;;;;;;;;;781152;180;629916;-74
2021/05/27 14:16:06;;;;;;;2.20;1.50;;;;;;;;;;766487;180;634338;-74
2021/05/27 14:18:32;;;;;;;2.93;2.00;;;;;;;;;;777234;181;617176;-74
2021/05/27 14:20:59;;;;;;;5.20;2.17;;;;;;;;;;775815;178;622327;-74
2021/05/27 14:23:23;;;;;;;3.27;2.10;;;;;;;;;;769795;180;707758;-74
2021/05/27 14:25:49;;;;;;;9.00;1.60;;;;;;;;;;775876;177;634468;-74
2021/05/27 14:28:16;;;;;;;3.95;1.65;;;;;;;;;;781093;177;632495;-73
2021/05/27 14:30:41;;;;;;;4.00;2.07;;;;;;;;;;780581;178;643863;-74
2021/05/27 14:33:07;;;;;;;5.70;2.07;;;;;;;;;;777735;179;623484;-73
2021/05/27 14:35:33;;;;;;;3.07;1.97;;;;;;;;;;776653;180;625753;-74